Time;durP1;ratioP1;P1;durP2;ratioP2;P2;SDS_P1;SDS_P2;PMS_P1;PMS_P2;Temp;Humidity;BMP_temperature;BMP_pressure;BME280_temperature;BME280_humidity;BME280_pressure;Samples;Min_cycle;Max_cycle;Signal;HPM_P1;HPM_P2
2023/07/23 00:01:46;;;;;;;2.42;2.33;;;;;;;;;;5056449;28;20096;-18
2023/07/23 00:04:12;;;;;;;2.15;2.05;;;;;;;;;;5055922;28;20029;-19
2023/07/23 00:06:39;;;;;;;2.50;2.40;;;;;;;;;;5055507;28;20068;-21
2023/07/23 00:09:05;;;;;;;2.25;2.15;;;;;;;;;;5066958;28;20048;-22
2023/07/23 00:11:32;;;;;;;2.30;2.20;;;;;;;;;;5075960;28;20165;-25
2023/07/23 00:13:58;;;;;;;2.63;2.53;;;;;;;;;;5076117;28;20040;-29
2023/07/23 00:16:24;;;;;;;2.30;2.20;;;;;;;;;;5075770;28;20051;-21
2023/07/23 00:18:50;;;;;;;2.25;2.15;;;;;;;;;;5075859;28;20021;-22
2023/07/23 00:21:16;;;;;;;2.30;2.20;;;;;;;;;;5076346;28;20343;-17
2023/07/23 00:23:42;;;;;;;2.50;2.40;;;;;;;;;;5075968;28;20024;-18
2023/07/23 00:26:08;;;;;;;2.20;2.10;;;;;;;;;;5075676;28;20032;-19
2023/07/23 00:28:34;;;;;;;2.60;2.50;;;;;;;;;;5075578;28;20025;-25
2023/07/23 00:31:01;;;;;;;2.30;2.20;;;;;;;;;;5075534;28;20028;-20
2023/07/23 00:33:27;;;;;;;2.40;2.30;;;;;;;;;;5075720;28;20467;-18
2023/07/23 00:35:53;;;;;;;2.38;2.28;;;;;;;;;;5075476;28;20016;-17
2023/07/23 00:38:20;;;;;;;2.35;2.25;;;;;;;;;;5075615;28;20024;-21
2023/07/23 00:40:46;;;;;;;2.22;2.13;;;;;;;;;;5075296;28;20016;-19
2023/07/23 00:43:12;;;;;;;2.10;2.00;;;;;;;;;;5075632;28;20067;-20
2023/07/23 00:45:39;;;;;;;2.28;2.17;;;;;;;;;;5075567;28;20372;-20
2023/07/23 00:48:05;;;;;;;2.30;2.20;;;;;;;;;;5075436;28;20029;-18
2023/07/23 00:50:31;;;;;;;2.40;2.30;;;;;;;;;;5075480;28;20054;-20
2023/07/23 00:52:58;;;;;;;2.13;2.03;;;;;;;;;;5075069;28;20064;-20
2023/07/23 00:55:24;;;;;;;2.53;2.42;;;;;;;;;;5075099;28;20025;-23
2023/07/23 00:57:50;;;;;;;1.92;1.83;;;;;;;;;;5075555;28;20028;-19
2023/07/23 01:00:16;;;;;;;1.90;1.80;;;;;;;;;;5075369;28;20035;-20
2023/07/23 01:02:43;;;;;;;2.20;2.10;;;;;;;;;;5075309;28;20535;-17
2023/07/23 01:05:10;;;;;;;2.00;1.90;;;;;;;;;;5074821;28;20094;-21
2023/07/23 01:07:36;;;;;;;2.17;2.08;;;;;;;;;;5074891;28;20058;-17
2023/07/23 01:10:03;;;;;;;2.70;2.50;;;;;;;;;;5055849;28;20472;-18
2023/07/23 01:12:30;;;;;;;2.45;2.35;;;;;;;;;;5055035;28;20393;-18
2023/07/23 01:14:57;;;;;;;1.73;1.63;;;;;;;;;;5054803;28;20048;-18
2023/07/23 01:17:24;;;;;;;2.28;2.17;;;;;;;;;;5054497;28;20037;-18
2023/07/23 01:20:02;;;;;;;1.88;1.77;;;;;;;;;;5054774;28;20029;-23
2023/07/23 01:22:28;;;;;;;2.20;2.10;;;;;;;;;;5054685;28;20095;-19
2023/07/23 01:24:55;;;;;;;2.35;2.25;;;;;;;;;;5054967;28;20032;-19
2023/07/23 01:27:21;;;;;;;2.05;1.95;;;;;;;;;;5054836;28;20036;-22
2023/07/23 01:29:47;;;;;;;2.47;2.38;;;;;;;;;;5054912;28;20025;-23
2023/07/23 01:32:13;;;;;;;2.25;2.15;;;;;;;;;;5054802;28;20033;-19
2023/07/23 01:34:39;;;;;;;2.35;2.25;;;;;;;;;;5054567;28;20436;-19
2023/07/23 01:37:05;;;;;;;2.10;2.00;;;;;;;;;;5054761;28;20032;-21
2023/07/23 01:39:33;;;;;;;2.17;2.08;;;;;;;;;;5054745;28;20017;-19
2023/07/23 01:41:59;;;;;;;1.77;1.67;;;;;;;;;;5054481;28;20024;-20
2023/07/23 01:44:25;;;;;;;3.00;2.80;;;;;;;;;;5054733;28;20021;-20
2023/07/23 01:46:51;;;;;;;2.33;2.22;;;;;;;;;;5054371;28;20018;-23
2023/07/23 01:49:17;;;;;;;2.42;2.25;;;;;;;;;;5054424;28;20025;-18
2023/07/23 01:51:44;;;;;;;1.92;1.83;;;;;;;;;;5054321;28;20021;-18
2023/07/23 01:54:10;;;;;;;2.15;2.05;;;;;;;;;;5054582;28;20099;-24
2023/07/23 01:56:36;;;;;;;2.13;2.03;;;;;;;;;;5054296;28;20017;-22
2023/07/23 01:59:04;;;;;;;2.00;1.90;;;;;;;;;;5054552;28;20021;-19
2023/07/23 02:01:30;;;;;;;1.92;1.83;;;;;;;;;;5054522;28;20092;-20
2023/07/23 02:03:56;;;;;;;2.00;1.90;;;;;;;;;;5054236;28;20146;-20
2023/07/23 02:06:22;;;;;;;2.05;1.95;;;;;;;;;;5054217;28;20033;-22
2023/07/23 02:08:48;;;;;;;2.20;2.10;;;;;;;;;;5062850;28;20444;-23
2023/07/23 02:11:15;;;;;;;2.40;2.28;;;;;;;;;;5075063;28;20030;-19
2023/07/23 02:13:41;;;;;;;2.13;1.98;;;;;;;;;;5074170;28;20032;-18
2023/07/23 02:16:07;;;;;;;2.00;1.90;;;;;;;;;;5074250;28;20017;-17
2023/07/23 02:18:33;;;;;;;2.05;1.95;;;;;;;;;;5074132;28;20028;-20
2023/07/23 02:20:59;;;;;;;1.85;1.75;;;;;;;;;;5074089;28;20024;-20
2023/07/23 02:23:25;;;;;;;2.05;1.95;;;;;;;;;;5074405;28;20021;-20
2023/07/23 02:25:51;;;;;;;2.28;2.13;;;;;;;;;;5074024;28;20117;-23
2023/07/23 02:28:17;;;;;;;2.00;1.90;;;;;;;;;;5074668;28;20024;-20
2023/07/23 02:30:43;;;;;;;2.00;1.90;;;;;;;;;;5078204;28;20324;-21
2023/07/23 02:33:10;;;;;;;1.80;1.70;;;;;;;;;;5078076;28;20115;-20
2023/07/23 02:35:39;;;;;;;2.38;2.28;;;;;;;;;;5077833;28;20020;-22
2023/07/23 02:38:05;;;;;;;2.13;2.03;;;;;;;;;;5060400;28;20407;-19
2023/07/23 02:40:35;;;;;;;2.30;2.10;;;;;;;;;;5077692;28;20031;-19
2023/07/23 02:43:01;;;;;;;1.90;1.80;;;;;;;;;;5077922;28;20042;-22
2023/07/23 02:45:27;;;;;;;2.03;1.92;;;;;;;;;;5077865;28;20089;-28
2023/07/23 02:47:53;;;;;;;1.90;1.80;;;;;;;;;;5077777;28;20024;-19
2023/07/23 02:50:20;;;;;;;2.05;1.95;;;;;;;;;;5077482;28;20044;-22
2023/07/23 02:52:46;;;;;;;1.95;1.85;;;;;;;;;;5077681;28;20025;-22
2023/07/23 02:55:12;;;;;;;2.20;2.10;;;;;;;;;;5077423;28;20021;-21
2023/07/23 02:57:38;;;;;;;2.03;1.92;;;;;;;;;;5077344;28;20020;-20
2023/07/23 03:00:04;;;;;;;2.28;2.17;;;;;;;;;;5077619;28;20099;-21
2023/07/23 03:02:31;;;;;;;2.00;1.90;;;;;;;;;;5077239;28;20451;-23
2023/07/23 03:04:57;;;;;;;2.10;2.00;;;;;;;;;;5077545;28;20035;-20
2023/07/23 03:07:23;;;;;;;1.90;1.80;;;;;;;;;;5077137;28;20036;-21
2023/07/23 03:09:50;;;;;;;2.22;2.13;;;;;;;;;;5060024;28;20102;-19
2023/07/23 03:12:16;;;;;;;1.92;1.83;;;;;;;;;;5057094;28;20470;-19
2023/07/23 03:14:42;;;;;;;2.13;2.03;;;;;;;;;;5057111;28;20017;-19
2023/07/23 03:17:08;;;;;;;2.38;2.28;;;;;;;;;;5057128;28;20391;-20
2023/07/23 03:19:35;;;;;;;1.83;1.73;;;;;;;;;;5056996;28;20037;-18
2023/07/23 03:22:01;;;;;;;2.17;2.08;;;;;;;;;;5057491;28;20017;-21
2023/07/23 03:24:27;;;;;;;1.98;1.88;;;;;;;;;;5056869;28;20025;-22
2023/07/23 03:26:53;;;;;;;2.25;2.15;;;;;;;;;;5056807;28;20360;-20
2023/07/23 03:29:19;;;;;;;1.75;1.65;;;;;;;;;;5039262;28;20049;-25
2023/07/23 03:31:45;;;;;;;1.95;1.85;;;;;;;;;;5057042;28;20508;-22
2023/07/23 03:34:11;;;;;;;2.05;1.95;;;;;;;;;;5056918;28;20099;-20
2023/07/23 03:36:37;;;;;;;1.60;1.60;;;;;;;;;;5056634;28;20151;-18
2023/07/23 03:39:03;;;;;;;1.90;1.80;;;;;;;;;;5056838;28;20021;-18
2023/07/23 03:41:30;;;;;;;2.05;1.95;;;;;;;;;;5056581;28;20024;-19
2023/07/23 03:43:56;;;;;;;1.92;1.83;;;;;;;;;;5056527;28;20040;-24
2023/07/23 03:46:22;;;;;;;2.03;1.92;;;;;;;;;;5056662;28;20436;-19
2023/07/23 03:48:48;;;;;;;2.15;2.05;;;;;;;;;;5056441;28;20440;-20
2023/07/23 03:51:15;;;;;;;1.90;1.80;;;;;;;;;;5056669;28;20086;-20
2023/07/23 03:53:41;;;;;;;2.20;2.10;;;;;;;;;;5038713;28;20025;-19
2023/07/23 03:56:07;;;;;;;2.00;1.90;;;;;;;;;;5056868;28;20025;-21
2023/07/23 03:58:34;;;;;;;1.95;1.85;;;;;;;;;;5056494;28;20104;-21
2023/07/23 04:01:00;;;;;;;2.13;2.03;;;;;;;;;;5056453;28;20017;-17
2023/07/23 04:03:26;;;;;;;2.22;2.13;;;;;;;;;;5056404;28;20035;-20
2023/07/23 04:05:52;;;;;;;2.05;1.95;;;;;;;;;;5056401;28;20028;-26
2023/07/23 04:08:18;;;;;;;2.20;2.10;;;;;;;;;;5060384;28;20124;-22
2023/07/23 04:10:44;;;;;;;2.15;2.05;;;;;;;;;;5076352;28;20024;-22
2023/07/23 04:13:10;;;;;;;2.35;2.17;;;;;;;;;;5075820;28;20025;-22
2023/07/23 04:15:37;;;;;;;2.10;2.00;;;;;;;;;;5075923;28;20064;-26
2023/07/23 04:18:03;;;;;;;2.28;2.17;;;;;;;;;;5076053;28;20020;-21
2023/07/23 04:20:29;;;;;;;1.98;1.88;;;;;;;;;;5075829;28;20021;-20
2023/07/23 04:22:55;;;;;;;2.33;2.22;;;;;;;;;;5075779;28;20032;-20
2023/07/23 04:25:22;;;;;;;2.50;2.40;;;;;;;;;;5076043;28;20028;-20
2023/07/23 04:27:48;;;;;;;2.40;2.30;;;;;;;;;;5075594;28;20362;-21
2023/07/23 04:30:14;;;;;;;2.35;2.17;;;;;;;;;;5075690;28;20029;-19
2023/07/23 04:32:40;;;;;;;2.22;2.13;;;;;;;;;;5075518;28;20035;-20
2023/07/23 04:35:06;;;;;;;2.40;2.30;;;;;;;;;;5075748;28;20021;-21
2023/07/23 04:37:32;;;;;;;2.28;2.17;;;;;;;;;;5075372;28;20391;-19
2023/07/23 04:39:58;;;;;;;2.60;2.40;;;;;;;;;;5075435;28;20021;-20
2023/07/23 04:42:24;;;;;;;2.47;2.38;;;;;;;;;;5075677;28;20034;-25
2023/07/23 04:44:50;;;;;;;1.90;1.80;;;;;;;;;;5075353;28;20029;-19
2023/07/23 04:47:16;;;;;;;2.10;2.00;;;;;;;;;;5075411;28;20098;-21
2023/07/23 04:49:43;;;;;;;2.17;2.05;;;;;;;;;;5075240;28;20024;-21
2023/07/23 04:52:09;;;;;;;2.53;2.42;;;;;;;;;;5074935;28;20039;-20
2023/07/23 04:54:35;;;;;;;2.10;2.00;;;;;;;;;;5075476;28;20035;-20
2023/07/23 04:57:01;;;;;;;2.55;2.45;;;;;;;;;;5075026;28;20028;-21
2023/07/23 04:59:27;;;;;;;2.38;2.17;;;;;;;;;;5075330;28;20103;-20
2023/07/23 05:01:53;;;;;;;2.17;1.98;;;;;;;;;;5075061;28;20036;-22
2023/07/23 05:04:19;;;;;;;2.10;2.00;;;;;;;;;;5075006;28;20043;-22
2023/07/23 05:06:45;;;;;;;2.45;2.35;;;;;;;;;;5074943;28;20085;-22
2023/07/23 05:09:12;;;;;;;6.30;2.88;;;;;;;;;;5063064;28;20049;-25
2023/07/23 05:11:38;;;;;;;2.40;2.30;;;;;;;;;;5055167;28;20108;-22
2023/07/23 05:14:04;;;;;;;2.55;2.45;;;;;;;;;;5055789;28;20029;-20
2023/07/23 05:16:30;;;;;;;2.30;2.20;;;;;;;;;;5055051;28;20029;-18
2023/07/23 05:18:56;;;;;;;1.88;1.77;;;;;;;;;;5054760;28;20090;-20
2023/07/23 05:21:22;;;;;;;2.17;2.08;;;;;;;;;;5054738;28;20028;-20
2023/07/23 05:23:48;;;;;;;2.28;2.17;;;;;;;;;;5054761;28;20446;-23
2023/07/23 05:26:14;;;;;;;2.42;2.33;;;;;;;;;;5054579;28;20025;-20
2023/07/23 05:28:41;;;;;;;2.08;1.98;;;;;;;;;;5054723;28;20055;-20
2023/07/23 05:31:07;;;;;;;2.17;2.08;;;;;;;;;;5054883;28;20035;-22
2023/07/23 05:33:33;;;;;;;2.47;2.28;;;;;;;;;;5054807;28;20321;-20
2023/07/23 05:35:59;;;;;;;2.10;2.00;;;;;;;;;;5054559;28;20021;-25
2023/07/23 05:38:28;;;;;;;2.45;2.35;;;;;;;;;;5054470;28;20028;-22
2023/07/23 05:40:55;;;;;;;2.10;2.00;;;;;;;;;;5054781;28;20472;-20
2023/07/23 05:43:21;;;;;;;2.03;1.92;;;;;;;;;;5054816;28;20116;-22
2023/07/23 05:45:48;;;;;;;2.40;2.30;;;;;;;;;;5054525;28;20417;-20
2023/07/23 05:48:14;;;;;;;2.40;2.30;;;;;;;;;;5054383;28;20407;-20
2023/07/23 05:50:40;;;;;;;2.15;2.05;;;;;;;;;;5054433;28;20059;-17
2023/07/23 05:53:06;;;;;;;2.30;2.17;;;;;;;;;;5054858;28;20360;-20
2023/07/23 05:55:32;;;;;;;2.45;2.35;;;;;;;;;;5054629;28;20021;-20
2023/07/23 05:57:58;;;;;;;2.28;2.17;;;;;;;;;;5054228;28;20028;-20
2023/07/23 06:00:24;;;;;;;2.85;2.65;;;;;;;;;;5054864;28;20460;-22
2023/07/23 06:02:51;;;;;;;2.15;2.05;;;;;;;;;;5054280;28;20025;-18
2023/07/23 06:05:17;;;;;;;2.38;2.28;;;;;;;;;;5058323;28;20037;-19
2023/07/23 06:07:43;;;;;;;2.15;2.05;;;;;;;;;;5058528;28;20104;-19
2023/07/23 06:10:09;;;;;;;2.92;2.72;;;;;;;;;;5077873;28;20126;-19
2023/07/23 06:12:35;;;;;;;2.67;2.58;;;;;;;;;;5078212;28;20043;-19
2023/07/23 06:15:02;;;;;;;2.30;2.20;;;;;;;;;;5078265;28;20038;-21
2023/07/23 06:17:28;;;;;;;4.05;2.40;;;;;;;;;;5078175;28;20247;-21
2023/07/23 06:19:54;;;;;;;1.88;1.77;;;;;;;;;;5060478;28;20448;-21
2023/07/23 06:22:20;;;;;;;2.13;2.03;;;;;;;;;;5078374;28;20020;-20
2023/07/23 06:24:47;;;;;;;2.58;2.38;;;;;;;;;;5078081;28;20398;-21
2023/07/23 06:27:13;;;;;;;2.17;2.08;;;;;;;;;;5077940;28;20363;-20
2023/07/23 06:29:39;;;;;;;2.50;2.33;;;;;;;;;;5078185;28;20347;-20
2023/07/23 06:32:05;;;;;;;2.65;2.45;;;;;;;;;;5078061;28;20025;-24
2023/07/23 06:34:31;;;;;;;2.63;2.53;;;;;;;;;;5077857;28;20029;-21
2023/07/23 06:36:57;;;;;;;2.60;2.45;;;;;;;;;;5078220;28;20029;-20
2023/07/23 06:39:23;;;;;;;2.22;2.13;;;;;;;;;;5077747;28;20097;-24
2023/07/23 06:41:49;;;;;;;2.38;2.28;;;;;;;;;;5077953;28;20025;-20
2023/07/23 06:44:16;;;;;;;3.45;3.15;;;;;;;;;;5077921;28;20040;-25
2023/07/23 06:46:42;;;;;;;2.17;2.08;;;;;;;;;;5077564;28;20035;-21
2023/07/23 06:49:08;;;;;;;2.45;2.28;;;;;;;;;;5077777;28;20036;-24
2023/07/23 06:51:34;;;;;;;2.50;2.40;;;;;;;;;;5077860;28;20017;-18
2023/07/23 06:54:01;;;;;;;2.28;2.17;;;;;;;;;;5077412;28;20451;-20
2023/07/23 06:56:27;;;;;;;2.80;2.60;;;;;;;;;;5077677;28;20020;-19
2023/07/23 06:58:53;;;;;;;2.63;2.53;;;;;;;;;;5077412;28;20071;-23
2023/07/23 07:01:21;;;;;;;2.03;1.92;;;;;;;;;;5077384;28;20304;-20
2023/07/23 07:03:47;;;;;;;2.78;2.60;;;;;;;;;;5077261;28;20475;-26
2023/07/23 07:06:13;;;;;;;2.60;2.50;;;;;;;;;;5077214;28;20040;-19
2023/07/23 07:08:39;;;;;;;2.60;2.50;;;;;;;;;;5069789;28;20063;-26
2023/07/23 07:11:09;;;;;;;2.38;2.28;;;;;;;;;;5057424;28;20060;-22
2023/07/23 07:13:37;;;;;;;2.22;2.10;;;;;;;;;;5056988;28;20456;-18
2023/07/23 07:16:03;;;;;;;2.80;2.60;;;;;;;;;;5057029;28;20037;-20
2023/07/23 07:18:29;;;;;;;2.42;2.22;;;;;;;;;;5057285;28;20474;-20
2023/07/23 07:20:59;;;;;;;2.70;2.50;;;;;;;;;;5056979;28;20024;-20
2023/07/23 07:23:26;;;;;;;2.33;2.23;;;;;;;;;;5057335;28;20360;-23
2023/07/23 07:25:54;;;;;;;2.80;2.60;;;;;;;;;;5057428;28;20104;-27
2023/07/23 07:28:20;;;;;;;2.90;2.70;;;;;;;;;;5056803;28;20052;-23
2023/07/23 07:30:46;;;;;;;2.55;2.45;;;;;;;;;;5057044;28;20036;-19
2023/07/23 07:33:12;;;;;;;2.67;2.58;;;;;;;;;;5056641;28;20111;-22
2023/07/23 07:35:39;;;;;;;2.10;2.00;;;;;;;;;;5057247;28;20460;-18
2023/07/23 07:38:05;;;;;;;3.15;2.95;;;;;;;;;;5056621;28;20544;-18
2023/07/23 07:40:31;;;;;;;2.25;2.15;;;;;;;;;;5056631;28;20024;-23
2023/07/23 07:42:57;;;;;;;3.40;2.22;;;;;;;;;;5057172;28;20091;-23
2023/07/23 07:45:24;;;;;;;2.67;2.45;;;;;;;;;;5057049;28;20169;-21
2023/07/23 07:47:50;;;;;;;2.63;2.42;;;;;;;;;;5056437;28;20044;-18
2023/07/23 07:50:16;;;;;;;2.53;2.33;;;;;;;;;;5056119;28;20028;-20
2023/07/23 07:52:42;;;;;;;3.13;2.92;;;;;;;;;;5055816;28;20056;-22
2023/07/23 07:55:08;;;;;;;2.40;2.30;;;;;;;;;;5055966;28;20045;-19
2023/07/23 07:57:35;;;;;;;3.15;2.85;;;;;;;;;;5056248;28;20025;-17
2023/07/23 08:00:06;;;;;;;2.55;2.45;;;;;;;;;;5056520;28;20419;-21
2023/07/23 08:02:33;;;;;;;2.78;2.40;;;;;;;;;;5056221;28;20056;-22
2023/07/23 08:04:59;;;;;;;2.67;2.47;;;;;;;;;;5056430;28;20402;-20
2023/07/23 08:07:25;;;;;;;3.22;3.00;;;;;;;;;;5056065;28;20033;-19
2023/07/23 08:09:53;;;;;;;2.70;2.50;;;;;;;;;;5055858;28;20408;-18
2023/07/23 08:12:19;;;;;;;2.70;2.50;;;;;;;;;;5055988;28;20037;-21
2023/07/23 08:14:46;;;;;;;2.40;2.30;;;;;;;;;;5056014;28;20375;-20
2023/07/23 08:17:13;;;;;;;2.90;2.70;;;;;;;;;;5056127;28;20029;-18
2023/07/23 08:19:39;;;;;;;3.00;2.80;;;;;;;;;;5055801;28;20448;-21
2023/07/23 08:22:06;;;;;;;2.65;2.45;;;;;;;;;;5055834;28;20053;-20
2023/07/23 08:24:32;;;;;;;2.80;2.60;;;;;;;;;;5056085;28;20124;-20
2023/07/23 08:27:00;;;;;;;2.92;2.15;;;;;;;;;;5054852;28;20039;-18
2023/07/23 08:29:28;;;;;;;2.25;2.15;;;;;;;;;;5055869;28;20472;-20
2023/07/23 08:31:57;;;;;;;2.63;2.50;;;;;;;;;;5055522;28;20041;-20
2023/07/23 08:34:25;;;;;;;2.80;2.60;;;;;;;;;;5055829;28;20056;-17
2023/07/23 08:36:52;;;;;;;2.50;2.30;;;;;;;;;;5055413;28;20510;-19
2023/07/23 08:39:18;;;;;;;2.55;2.45;;;;;;;;;;5055463;28;20029;-18
2023/07/23 08:41:50;;;;;;;2.97;2.78;;;;;;;;;;5055736;28;20130;-19
2023/07/23 08:44:35;;;;;;;2.72;2.55;;;;;;;;;;5055735;28;20093;-23
2023/07/23 08:47:07;;;;;;;2.95;2.75;;;;;;;;;;5055853;28;20049;-20
2023/07/23 08:49:34;;;;;;;2.53;2.40;;;;;;;;;;5055014;28;20035;-21
2023/07/23 08:52:00;;;;;;;3.15;2.88;;;;;;;;;;5054819;28;20025;-19
2023/07/23 08:54:26;;;;;;;3.10;2.78;;;;;;;;;;5054684;28;20460;-19
2023/07/23 08:56:54;;;;;;;2.55;2.35;;;;;;;;;;5054618;28;20036;-19
2023/07/23 08:59:20;;;;;;;2.97;2.78;;;;;;;;;;5054609;28;20025;-22
2023/07/23 09:01:46;;;;;;;2.83;2.67;;;;;;;;;;5055057;28;20446;-19
2023/07/23 09:04:13;;;;;;;3.17;2.97;;;;;;;;;;5055043;28;20043;-20
2023/07/23 09:06:42;;;;;;;2.97;2.72;;;;;;;;;;5054430;28;20029;-20
2023/07/23 09:09:08;;;;;;;2.63;2.42;;;;;;;;;;5054455;28;20060;-19
2023/07/23 09:11:35;;;;;;;3.05;2.85;;;;;;;;;;5055461;28;20120;-20
2023/07/23 09:14:09;;;;;;;2.38;2.28;;;;;;;;;;5055384;28;20057;-19
2023/07/23 09:16:36;;;;;;;3.03;2.83;;;;;;;;;;5054709;28;20021;-22
2023/07/23 09:19:02;;;;;;;2.50;2.40;;;;;;;;;;5054856;28;20506;-18
2023/07/23 09:21:28;;;;;;;2.60;2.40;;;;;;;;;;5054738;28;20031;-17
2023/07/23 09:23:56;;;;;;;2.60;2.50;;;;;;;;;;5054727;28;20056;-20
2023/07/23 09:26:27;;;;;;;2.40;2.30;;;;;;;;;;5054816;28;20029;-18
2023/07/23 09:28:54;;;;;;;2.60;2.50;;;;;;;;;;5054927;28;20498;-26
2023/07/23 09:31:22;;;;;;;2.25;2.15;;;;;;;;;;5054573;28;20041;-21
2023/07/23 09:33:48;;;;;;;3.78;2.30;;;;;;;;;;5054444;28;20021;-18
2023/07/23 09:36:14;;;;;;;2.42;2.30;;;;;;;;;;5054806;28;20021;-21
2023/07/23 09:38:45;;;;;;;2.80;2.63;;;;;;;;;;5054414;28;20021;-20
2023/07/23 09:41:12;;;;;;;2.90;2.70;;;;;;;;;;5054893;28;20029;-20
2023/07/23 09:43:39;;;;;;;2.72;2.55;;;;;;;;;;5054413;28;20025;-21
2023/07/23 09:46:05;;;;;;;2.65;2.55;;;;;;;;;;5054504;28;20021;-19
2023/07/23 09:48:32;;;;;;;2.70;2.50;;;;;;;;;;5054402;28;20060;-21
2023/07/23 09:50:58;;;;;;;3.03;2.83;;;;;;;;;;5054323;28;20025;-19
2023/07/23 09:53:24;;;;;;;2.95;2.75;;;;;;;;;;5054254;28;20108;-20
2023/07/23 09:55:51;;;;;;;2.60;2.50;;;;;;;;;;5054835;28;20079;-20
2023/07/23 09:58:17;;;;;;;2.40;2.30;;;;;;;;;;5054248;28;20096;-23
2023/07/23 10:00:46;;;;;;;2.13;1.92;;;;;;;;;;5054617;28;20382;-20
2023/07/23 10:03:16;;;;;;;2.42;2.28;;;;;;;;;;5054277;28;20325;-19
2023/07/23 10:05:43;;;;;;;2.53;2.33;;;;;;;;;;5054292;28;20503;-22
2023/07/23 10:08:10;;;;;;;2.65;2.50;;;;;;;;;;5054921;28;20479;-20
2023/07/23 10:10:36;;;;;;;2.47;2.38;;;;;;;;;;5074363;28;20043;-22
2023/07/23 10:13:02;;;;;;;2.60;2.40;;;;;;;;;;5074183;28;20455;-23
2023/07/23 10:15:29;;;;;;;3.20;3.00;;;;;;;;;;5074235;28;20055;-20
2023/07/23 10:18:00;;;;;;;3.17;2.97;;;;;;;;;;5074144;28;20036;-19
2023/07/23 10:20:27;;;;;;;3.25;3.05;;;;;;;;;;5074513;28;20055;-18
2023/07/23 10:22:54;;;;;;;2.72;2.55;;;;;;;;;;5074163;28;20039;-18
2023/07/23 10:25:34;;;;;;;2.95;2.75;;;;;;;;;;5074912;28;20032;-22
2023/07/23 10:28:02;;;;;;;2.28;2.15;;;;;;;;;;5074857;28;20028;-23
2023/07/23 10:30:28;;;;;;;2.60;2.40;;;;;;;;;;5074366;28;20025;-20
2023/07/23 10:33:10;;;;;;;2.72;2.60;;;;;;;;;;5074263;28;20020;-22
2023/07/23 10:35:35;;;;;;;;;;;;;;;;;;5074778;28;20369;-20
2023/07/23 10:38:20;;;;;;;2.60;2.50;;;;;;;;;;5074120;28;19930;-20
2023/07/23 10:40:47;;;;;;;2.40;2.30;;;;;;;;;;5056374;28;20536;-22
2023/07/23 10:43:13;;;;;;;2.47;2.38;;;;;;;;;;5074029;28;20356;-18
2023/07/23 10:45:45;;;;;;;2.63;2.53;;;;;;;;;;5073983;28;20029;-22
2023/07/23 10:48:16;;;;;;;2.45;2.35;;;;;;;;;;5074208;28;20024;-23
2023/07/23 10:50:59;;;;;;;2.72;2.63;;;;;;;;;;5077102;28;20035;-22
2023/07/23 10:53:27;;;;;;;2.40;2.30;;;;;;;;;;5077806;28;20029;-17
2023/07/23 10:55:53;;;;;;;2.67;2.47;;;;;;;;;;5077505;28;20032;-19
2023/07/23 10:58:20;;;;;;;2.85;2.72;;;;;;;;;;5077642;28;20043;-20
2023/07/23 11:00:47;;;;;;;2.67;2.58;;;;;;;;;;5077399;28;20020;-19
2023/07/23 11:03:14;;;;;;;2.25;2.15;;;;;;;;;;5077677;28;20108;-21
2023/07/23 11:05:42;;;;;;;2.67;2.58;;;;;;;;;;5077353;28;20020;-20
2023/07/23 11:08:15;;;;;;;2.78;2.65;;;;;;;;;;5076779;28;20020;-20
2023/07/23 11:10:53;;;;;;;2.70;2.50;;;;;;;;;;5077519;28;20028;-20
2023/07/23 11:13:21;;;;;;;2.72;2.42;;;;;;;;;;5077709;28;20033;-20
2023/07/23 11:15:47;;;;;;;3.03;2.90;;;;;;;;;;5077418;28;20390;-19
2023/07/23 11:18:13;;;;;;;3.65;2.63;;;;;;;;;;5077278;28;20036;-20
2023/07/23 11:20:46;;;;;;;2.00;1.90;;;;;;;;;;5077104;28;20433;-18
2023/07/23 11:23:13;;;;;;;2.72;2.55;;;;;;;;;;5077059;28;20024;-25
2023/07/23 11:25:39;;;;;;;2.83;2.70;;;;;;;;;;5076949;28;20035;-21
2023/07/23 11:28:07;;;;;;;3.97;2.72;;;;;;;;;;5077172;28;20098;-21
2023/07/23 11:30:33;;;;;;;3.00;2.85;;;;;;;;;;5077968;28;20329;-19
2023/07/23 11:32:59;;;;;;;2.50;2.40;;;;;;;;;;5076754;28;20402;-21
2023/07/23 11:35:26;;;;;;;2.72;2.53;;;;;;;;;;5077106;28;20021;-21
2023/07/23 11:37:52;;;;;;;2.45;2.25;;;;;;;;;;5076772;28;20096;-19
2023/07/23 11:40:22;;;;;;;2.75;2.65;;;;;;;;;;5076987;28;20025;-25
2023/07/23 11:42:48;;;;;;;2.72;2.53;;;;;;;;;;5077176;28;20107;-18
2023/07/23 11:45:14;;;;;;;3.13;2.72;;;;;;;;;;5077193;28;20046;-19
2023/07/23 11:47:50;;;;;;;2.95;2.65;;;;;;;;;;5076762;28;20032;-24
2023/07/23 11:50:16;;;;;;;3.20;3.00;;;;;;;;;;5076547;28;20031;-21
2023/07/23 11:52:43;;;;;;;2.53;2.33;;;;;;;;;;5076351;28;20035;-20
2023/07/23 11:55:19;;;;;;;2.42;2.33;;;;;;;;;;5076457;28;20085;-18
2023/07/23 11:57:46;;;;;;;2.50;2.33;;;;;;;;;;5076381;28;20044;-22
2023/07/23 12:00:12;;;;;;;2.65;2.53;;;;;;;;;;5076386;28;20052;-23
2023/07/23 12:02:38;;;;;;;2.30;2.20;;;;;;;;;;5058413;28;20111;-20
2023/07/23 12:05:06;;;;;;;2.75;2.58;;;;;;;;;;5076202;28;20036;-17
2023/07/23 12:07:32;;;;;;;2.08;1.98;;;;;;;;;;5058760;28;20024;-19
2023/07/23 12:09:59;;;;;;;2.47;2.38;;;;;;;;;;5059936;28;20472;-20
2023/07/23 12:12:26;;;;;;;2.28;2.10;;;;;;;;;;5055966;28;20073;-19
2023/07/23 12:15:05;;;;;;;2.50;2.35;;;;;;;;;;5055984;28;20036;-18
2023/07/23 12:17:31;;;;;;;3.83;3.10;;;;;;;;;;5056184;28;20036;-20
2023/07/23 12:19:57;;;;;;;2.63;2.50;;;;;;;;;;5055848;28;20060;-20
2023/07/23 12:22:24;;;;;;;2.55;2.45;;;;;;;;;;5056148;28;20147;-21
2023/07/23 12:24:50;;;;;;;2.70;2.60;;;;;;;;;;5056054;28;20352;-24
2023/07/23 12:27:17;;;;;;;2.63;2.53;;;;;;;;;;5056009;28;20018;-18
2023/07/23 12:29:43;;;;;;;2.78;2.67;;;;;;;;;;5055765;28;20032;-21
2023/07/23 12:32:10;;;;;;;2.80;2.70;;;;;;;;;;5055705;28;20478;-20
2023/07/23 12:34:38;;;;;;;2.83;2.63;;;;;;;;;;5055632;28;20029;-21
2023/07/23 12:37:04;;;;;;;2.80;2.60;;;;;;;;;;5055516;28;20036;-20
2023/07/23 12:39:30;;;;;;;2.42;2.33;;;;;;;;;;5055575;28;20028;-22
2023/07/23 12:41:56;;;;;;;2.35;2.22;;;;;;;;;;5055757;28;20104;-22
2023/07/23 12:44:23;;;;;;;2.70;2.60;;;;;;;;;;5038401;28;20033;-21
2023/07/23 12:46:49;;;;;;;2.72;2.50;;;;;;;;;;5055592;28;20410;-20
2023/07/23 12:49:15;;;;;;;2.42;2.33;;;;;;;;;;5055361;28;20025;-20
2023/07/23 12:51:41;;;;;;;2.78;2.58;;;;;;;;;;5055323;28;20356;-27
2023/07/23 12:54:07;;;;;;;2.30;2.20;;;;;;;;;;5055260;28;20103;-20
2023/07/23 12:56:34;;;;;;;2.10;2.00;;;;;;;;;;5055107;28;20021;-21
2023/07/23 12:59:00;;;;;;;2.50;2.40;;;;;;;;;;5055188;28;20364;-20
2023/07/23 13:01:26;;;;;;;2.67;2.58;;;;;;;;;;5055169;28;20024;-22
2023/07/23 13:03:53;;;;;;;2.55;2.45;;;;;;;;;;5055624;28;20356;-18
2023/07/23 13:06:19;;;;;;;2.50;2.40;;;;;;;;;;5055304;28;20042;-20
2023/07/23 13:08:46;;;;;;;2.63;2.47;;;;;;;;;;5060805;28;20406;-22
2023/07/23 13:11:12;;;;;;;2.38;2.28;;;;;;;;;;5074958;28;20363;-20
2023/07/23 13:13:38;;;;;;;2.47;2.38;;;;;;;;;;5074706;28;20347;-21
2023/07/23 13:16:04;;;;;;;2.45;2.35;;;;;;;;;;5075147;28;20382;-21
2023/07/23 13:18:31;;;;;;;3.30;3.10;;;;;;;;;;5074855;28;20052;-20
2023/07/23 13:20:58;;;;;;;2.60;2.40;;;;;;;;;;5074815;28;20459;-21
2023/07/23 13:23:24;;;;;;;2.72;2.53;;;;;;;;;;5075070;28;20025;-19
2023/07/23 13:25:52;;;;;;;2.97;2.78;;;;;;;;;;5074777;28;20123;-20
2023/07/23 13:28:18;;;;;;;3.00;2.85;;;;;;;;;;5074648;28;20103;-20
2023/07/23 13:30:44;;;;;;;2.72;2.63;;;;;;;;;;5074735;28;20056;-19
2023/07/23 13:33:10;;;;;;;2.35;2.25;;;;;;;;;;5075140;28;20393;-20
2023/07/23 13:35:36;;;;;;;2.20;2.10;;;;;;;;;;5074611;28;20081;-21
2023/07/23 13:38:03;;;;;;;2.95;2.75;;;;;;;;;;5074542;28;20130;-20
2023/07/23 13:40:29;;;;;;;2.65;2.50;;;;;;;;;;5074895;28;20462;-22
2023/07/23 13:42:56;;;;;;;2.50;2.40;;;;;;;;;;5074621;28;20375;-20
2023/07/23 13:45:22;;;;;;;2.92;2.83;;;;;;;;;;5074591;28;20135;-21
2023/07/23 13:47:49;;;;;;;3.05;2.90;;;;;;;;;;5074461;28;20021;-20
2023/07/23 13:50:16;;;;;;;2.38;2.28;;;;;;;;;;5074510;28;20028;-18
2023/07/23 13:52:42;;;;;;;3.03;2.88;;;;;;;;;;5074676;28;20029;-20
2023/07/23 13:55:08;;;;;;;2.60;2.50;;;;;;;;;;5074449;28;20021;-20
2023/07/23 13:57:34;;;;;;;3.60;2.65;;;;;;;;;;5074381;28;20027;-21
2023/07/23 14:00:03;;;;;;;3.08;2.88;;;;;;;;;;5074653;28;20021;-19
2023/07/23 14:02:29;;;;;;;2.60;2.40;;;;;;;;;;5074681;28;20052;-20
2023/07/23 14:04:55;;;;;;;2.45;2.35;;;;;;;;;;5074648;28;20081;-20
2023/07/23 14:07:22;;;;;;;2.60;2.50;;;;;;;;;;5056625;28;20489;-24
2023/07/23 14:09:48;;;;;;;3.05;2.85;;;;;;;;;;5059504;28;20095;-20
2023/07/23 14:12:14;;;;;;;3.28;3.08;;;;;;;;;;5054280;28;20151;-20
2023/07/23 14:14:40;;;;;;;2.65;2.53;;;;;;;;;;5054191;28;20155;-19
2023/07/23 14:17:06;;;;;;;3.28;3.08;;;;;;;;;;5054430;28;20028;-19
2023/07/23 14:19:33;;;;;;;3.22;3.03;;;;;;;;;;5054441;28;20355;-19
2023/07/23 14:21:59;;;;;;;2.38;2.28;;;;;;;;;;5054153;28;20108;-20
2023/07/23 14:24:25;;;;;;;3.13;2.92;;;;;;;;;;5055374;28;20033;-19
2023/07/23 14:26:51;;;;;;;3.22;3.03;;;;;;;;;;5058020;28;20416;-20
2023/07/23 14:29:18;;;;;;;2.78;2.67;;;;;;;;;;5058001;28;20025;-20
2023/07/23 14:31:44;;;;;;;2.63;2.42;;;;;;;;;;5058235;28;20044;-20
2023/07/23 14:34:10;;;;;;;2.55;2.45;;;;;;;;;;5040319;28;20028;-17
2023/07/23 14:36:36;;;;;;;2.60;2.50;;;;;;;;;;5058079;28;20029;-21
2023/07/23 14:39:02;;;;;;;3.00;2.80;;;;;;;;;;5057830;28;20513;-21
2023/07/23 14:41:28;;;;;;;2.88;2.67;;;;;;;;;;5058073;28;20028;-22